Time;durP1;ratioP1;P1;durP2;ratioP2;P2;SDS_P1;SDS_P2;PMS_P1;PMS_P2;Temp;Humidity;BMP_temperature;BMP_pressure;BME280_temperature;BME280_humidity;BME280_pressure;Samples;Min_cycle;Max_cycle;Signal;HPM_P1;HPM_P2
2022/04/28 00:00:36;;;;;;;14.30;7.63;;;4.10;99.90;;;;;;4938813;29;20039;-59
2022/04/28 00:03:02;;;;;;;14.80;7.93;;;4.00;99.90;;;;;;4953898;28;20035;-61
2022/04/28 00:05:28;;;;;;;13.63;7.13;;;4.00;99.90;;;;;;4955924;28;20027;-60
2022/04/28 00:07:53;;;;;;;15.35;7.50;;;4.00;99.90;;;;;;4956141;28;20481;-60
2022/04/28 00:10:19;;;;;;;17.23;8.00;;;4.00;99.90;;;;;;4961213;28;20035;-61
2022/04/28 00:12:45;;;;;;;16.45;8.75;;;3.90;99.90;;;;;;4956903;28;20090;-61
2022/04/28 00:15:11;;;;;;;16.58;8.48;;;3.90;99.90;;;;;;4956188;28;20465;-61
2022/04/28 00:17:37;;;;;;;17.70;8.30;;;4.00;99.90;;;;;;4952524;28;23858;-60
2022/04/28 00:20:04;;;;;;;16.88;8.55;;;4.00;99.90;;;;;;4962601;28;20078;-61
2022/04/28 00:22:30;;;;;;;18.00;8.02;;;4.00;99.90;;;;;;4955285;28;20039;-60
2022/04/28 00:24:56;;;;;;;18.73;8.23;;;4.10;99.90;;;;;;4955794;29;20090;-60
2022/04/28 00:27:21;;;;;;;16.77;8.32;;;4.20;99.90;;;;;;4955167;28;20031;-61
2022/04/28 00:29:47;;;;;;;14.15;8.18;;;4.20;99.90;;;;;;4955104;28;20090;-61
2022/04/28 00:32:13;;;;;;;19.80;8.13;;;4.20;99.90;;;;;;4955556;28;20528;-61
2022/04/28 00:34:38;;;;;;;16.23;8.10;;;4.20;99.90;;;;;;4952901;28;20111;-60
2022/04/28 00:37:05;;;;;;;20.17;8.65;;;4.20;99.90;;;;;;4954931;28;20441;-61
2022/04/28 00:39:31;;;;;;;17.25;8.23;;;4.10;99.90;;;;;;4955005;28;20613;-61
2022/04/28 00:41:56;;;;;;;19.38;8.80;;;4.10;99.90;;;;;;4953188;28;20134;-61
2022/04/28 00:44:22;;;;;;;17.98;8.80;;;4.00;99.90;;;;;;4954331;28;20039;-61
2022/04/28 00:46:47;;;;;;;17.77;8.82;;;4.00;99.90;;;;;;4955021;28;20038;-61
2022/04/28 00:51:59;;;;;;;18.50;8.93;;;4.00;99.90;;;;;;4954720;28;20490;-61
2022/04/28 00:54:26;;;;;;;17.60;9.23;;;4.00;99.90;;;;;;4960806;28;20087;-61
2022/04/28 00:56:51;;;;;;;20.60;9.35;;;4.00;99.90;;;;;;4955190;28;20046;-61
2022/04/28 00:59:17;;;;;;;18.08;8.40;;;4.00;99.90;;;;;;4955311;29;20043;-61
2022/04/28 01:01:43;;;;;;;17.90;8.95;;;4.00;99.90;;;;;;4953957;28;20036;-61
2022/04/28 01:04:09;;;;;;;15.55;8.00;;;3.90;99.90;;;;;;4954463;28;20122;-61
2022/04/28 01:06:34;;;;;;;16.42;8.15;;;3.80;99.90;;;;;;4954784;28;20043;-61
2022/04/28 01:09:00;;;;;;;20.23;9.65;;;3.70;99.90;;;;;;4952960;28;20118;-61
2022/04/28 01:11:27;;;;;;;15.40;7.35;;;3.60;99.90;;;;;;4955872;28;20039;-61
2022/04/28 01:13:53;;;;;;;17.95;9.07;;;3.50;99.90;;;;;;4954816;28;20043;-61
2022/04/28 01:16:18;;;;;;;12.15;6.93;;;3.50;99.90;;;;;;4955196;28;20041;-61
2022/04/28 01:18:44;;;;;;;16.20;8.13;;;3.30;99.90;;;;;;4954067;28;20406;-60
2022/04/28 01:21:10;;;;;;;16.40;8.32;;;3.20;99.90;;;;;;4954636;28;20557;-61
2022/04/28 01:23:36;;;;;;;13.43;8.45;;;3.20;99.90;;;;;;4954039;29;20601;-61
2022/04/28 01:26:03;;;;;;;16.52;8.85;;;3.20;99.90;;;;;;4960812;28;20031;-61
2022/04/28 01:28:32;;;;;;;16.40;7.32;;;3.30;99.90;;;;;;4953973;28;20101;-61
2022/04/28 01:31:05;;;;;;;18.25;8.27;;;3.00;99.90;;;;;;4954705;28;20046;-61
2022/04/28 01:33:31;;;;;;;16.60;8.43;;;2.90;99.90;;;;;;4954283;29;20050;-61
2022/04/28 01:35:56;;;;;;;20.40;9.13;;;2.80;99.90;;;;;;4955774;28;20106;-61
2022/04/28 01:38:22;;;;;;;23.38;11.25;;;2.80;99.90;;;;;;4953776;28;20125;-61
2022/04/28 01:40:47;;;;;;;20.80;9.13;;;2.90;99.90;;;;;;4934912;28;20054;-61
2022/04/28 01:43:13;;;;;;;18.58;9.30;;;3.00;99.90;;;;;;4952710;28;20039;-61
2022/04/28 01:45:39;;;;;;;18.30;8.95;;;3.00;99.90;;;;;;4953982;28;20031;-60
2022/04/28 01:48:04;;;;;;;20.33;10.55;;;3.10;99.90;;;;;;4954489;29;20553;-61
2022/04/28 01:50:30;;;;;;;23.95;10.35;;;3.10;99.90;;;;;;4951591;28;20043;-60
2022/04/28 01:55:40;;;;;;;18.88;9.48;;;3.10;99.90;;;;;;4954045;28;20230;-61
2022/04/28 01:58:05;;;;;;;14.93;7.93;;;3.00;99.90;;;;;;4955482;28;20411;-61
2022/04/28 02:00:32;;;;;;;17.40;7.25;;;2.90;99.90;;;;;;4957208;28;20434;-61
2022/04/28 02:02:58;;;;;;;16.90;8.65;;;2.80;99.90;;;;;;4953550;28;20050;-61
2022/04/28 02:05:23;;;;;;;12.80;7.05;;;2.70;99.90;;;;;;4953765;29;20402;-61
2022/04/28 02:07:49;;;;;;;12.27;6.75;;;2.70;99.90;;;;;;4951298;28;20058;-61
2022/04/28 02:10:15;;;;;;;17.08;8.65;;;2.60;99.90;;;;;;4953639;28;20089;-61
2022/04/28 02:12:40;;;;;;;20.80;10.68;;;2.60;99.90;;;;;;4953501;28;20051;-61
2022/04/28 02:15:06;;;;;;;19.48;9.88;;;2.60;99.90;;;;;;4953980;28;20032;-61
2022/04/28 02:17:37;;;;;;;19.00;8.85;;;2.60;99.90;;;;;;4953256;28;20035;-61
2022/04/28 02:20:05;;;;;;;21.85;10.35;;;2.60;99.90;;;;;;4961342;28;20055;-62
2022/04/28 02:22:31;;;;;;;26.10;10.45;;;2.70;99.90;;;;;;4958133;28;20035;-62
2022/04/28 02:24:57;;;;;;;21.05;10.35;;;2.70;99.90;;;;;;4961888;28;20481;-62
2022/04/28 02:27:24;;;;;;;20.73;9.95;;;2.70;99.90;;;;;;4936450;29;20039;-62
2022/04/28 02:29:50;;;;;;;122.80;10.18;;;2.70;99.90;;;;;;4951249;28;20039;-62
2022/04/28 02:32:16;;;;;;;21.70;9.52;;;2.70;99.90;;;;;;4950855;28;20047;-62
2022/04/28 02:34:41;;;;;;;20.63;9.88;;;2.60;99.90;;;;;;4952829;28;20039;-62
2022/04/28 02:37:07;;;;;;;23.08;10.25;;;2.60;99.90;;;;;;4953521;28;20122;-62
2022/04/28 02:39:33;;;;;;;18.38;9.70;;;2.60;99.90;;;;;;4936281;29;20047;-62
2022/04/28 02:41:58;;;;;;;21.38;9.93;;;2.60;99.90;;;;;;4951152;28;20035;-62
2022/04/28 02:44:24;;;;;;;20.75;9.75;;;2.60;99.90;;;;;;4952841;28;20027;-62
2022/04/28 02:46:49;;;;;;;21.23;10.38;;;2.60;99.90;;;;;;4953261;28;20118;-62
2022/04/28 02:49:16;;;;;;;25.58;11.95;;;2.60;99.90;;;;;;4951057;28;20046;-62
2022/04/28 02:51:42;;;;;;;24.10;11.05;;;2.60;99.90;;;;;;4952948;28;20138;-62
2022/04/28 02:54:08;;;;;;;23.15;10.60;;;2.60;99.90;;;;;;4953232;28;20122;-62
2022/04/28 02:56:34;;;;;;;24.05;10.75;;;2.60;99.90;;;;;;4960703;28;20437;-62
2022/04/28 02:59:00;;;;;;;23.38;11.00;;;2.50;99.90;;;;;;4964474;28;20094;-62
2022/04/28 03:01:26;;;;;;;26.48;11.18;;;2.50;99.90;;;;;;4956662;28;20031;-62
2022/04/28 03:03:52;;;;;;;21.42;10.60;;;2.50;99.90;;;;;;4957240;29;20059;-62
2022/04/28 03:11:48;;;;;;;18.90;9.68;;;2.30;99.90;;;;;;4955663;28;20050;-62
2022/04/28 03:14:14;;;;;;;20.58;9.50;;;2.20;99.90;;;;;;4953871;28;20043;-62
2022/04/28 03:16:39;;;;;;;22.65;10.30;;;2.10;99.90;;;;;;4956111;28;20050;-62
2022/04/28 03:19:05;;;;;;;22.83;10.35;;;2.00;99.90;;;;;;4956705;29;20035;-62
2022/04/28 03:21:32;;;;;;;48.70;9.45;;;2.00;99.90;;;;;;4954802;28;20049;-62
2022/04/28 03:23:57;;;;;;;25.40;10.73;;;1.90;99.90;;;;;;4955623;28;20500;-61
2022/04/28 03:26:23;;;;;;;21.15;10.90;;;1.90;99.90;;;;;;4956480;28;20039;-62
2022/04/28 03:28:49;;;;;;;35.30;9.95;;;1.80;99.90;;;;;;5019862;23;20047;-60
2022/04/28 03:31:15;;;;;;;98.45;12.13;;;1.70;99.90;;;;;;4975714;28;20514;-61
2022/04/28 03:49:13;;;;;;;17.08;9.23;;;1.70;99.90;;;;;;5827305;23;20966;-61
2022/04/28 03:51:39;;;;;;;13.75;7.18;;;1.60;99.90;;;;;;4976278;28;20031;-61
2022/04/28 04:09:36;;;;;;;18.17;10.25;;;1.90;99.90;;;;;;4927451;29;20048;-61
2022/04/28 04:12:02;;;;;;;28.13;13.05;;;1.90;99.90;;;;;;4914560;29;20618;-61
2022/04/28 04:14:27;;;;;;;22.27;12.20;;;1.80;99.90;;;;;;5933208;23;20025;-61
2022/04/28 04:16:53;;;;;;;26.58;12.05;;;1.90;99.90;;;;;;4952186;29;20098;-61
2022/04/28 04:19:18;;;;;;;19.17;10.38;;;1.90;99.90;;;;;;4949995;28;20036;-61
2022/04/28 04:24:20;;;;;;;23.38;10.95;;;1.80;99.90;;;;;;5759252;23;20055;-61
2022/04/28 04:26:46;;;;;;;23.98;10.95;;;2.00;99.90;;;;;;4947086;28;20047;-61
2022/04/28 04:29:12;;;;;;;23.73;10.52;;;2.10;99.90;;;;;;4959379;28;20050;-60
2022/04/28 04:36:48;;;;;;;23.52;11.32;;;2.20;99.90;;;;;;5062083;23;20051;-61
2022/04/28 04:39:14;;;;;;;25.05;11.75;;;2.30;99.90;;;;;;4957142;28;20036;-61
2022/04/28 04:44:15;;;;;;;26.77;11.13;;;2.40;99.90;;;;;;5668794;23;20051;-60
2022/04/28 05:00:06;;;;;;;22.58;10.38;;;2.90;99.90;;;;;;5412272;23;20137;-61
2022/04/28 05:16:02;;;;;;;24.42;11.15;;;3.50;99.90;;;;;;5611347;23;20050;-61
2022/04/28 05:18:28;;;;;;;23.70;11.73;;;3.60;99.90;;;;;;4953441;28;20099;-61
2022/04/28 05:20:54;;;;;;;23.65;12.05;;;3.70;99.90;;;;;;4957960;28;20042;-60
2022/04/28 05:23:20;;;;;;;24.45;12.40;;;3.80;99.90;;;;;;4950853;28;20102;-60
2022/04/28 05:25:46;;;;;;;22.58;10.80;;;3.90;99.90;;;;;;4950766;28;20049;-61
2022/04/28 05:28:11;;;;;;;20.48;11.52;;;4.00;99.90;;;;;;4950891;28;20038;-61
2022/04/28 05:30:37;;;;;;;20.05;10.60;;;4.10;99.90;;;;;;4950819;28;20633;-61
2022/04/28 05:33:03;;;;;;;28.02;12.13;;;4.20;99.90;;;;;;4951246;29;20067;-61
2022/04/28 05:35:29;;;;;;;24.65;11.27;;;4.30;99.90;;;;;;4950278;28;20043;-61
2022/04/28 05:37:55;;;;;;;25.33;10.93;;;4.40;99.90;;;;;;4950574;28;20470;-61
2022/04/28 05:40:21;;;;;;;24.52;11.88;;;4.50;99.90;;;;;;4950729;28;20049;-61
2022/04/28 05:45:47;;;;;;;24.55;11.25;;;4.90;99.90;;;;;;4950477;28;20783;-61
2022/04/28 05:48:17;;;;;;;26.83;11.80;;;5.10;99.90;;;;;;4950829;28;20043;-61
2022/04/28 05:53:19;;;;;;;17.80;10.60;;;5.40;99.90;;;;;;5288545;23;20128;-61
2022/04/28 05:55:46;;;;;;;24.77;10.70;;;5.60;99.90;;;;;;4969223;28;20118;-60
2022/04/28 05:58:11;;;;;;;23.67;11.15;;;5.70;99.90;;;;;;4969671;28;20111;-66
2022/04/28 06:00:37;;;;;;;21.30;10.77;;;5.80;99.90;;;;;;4956460;28;20042;-61
2022/04/28 06:03:03;;;;;;;22.30;11.32;;;5.90;99.90;;;;;;4931689;29;20035;-62
2022/04/28 06:29:53;;;;;;;20.10;10.75;;;7.00;99.90;;;;;;5113076;23;20051;-60
2022/04/28 06:41:26;;;;;;;22.23;10.25;;;7.30;99.90;;;;;;5348853;23;20493;-61
2022/04/28 06:43:52;;;;;;;25.00;10.95;;;7.40;99.90;;;;;;4971204;28;20079;-61
2022/04/28 06:46:18;;;;;;;21.10;9.68;;;7.50;99.90;;;;;;4968174;28;20042;-60
2022/04/28 06:51:54;;;;;;;25.10;10.35;;;7.70;99.90;;;;;;4938672;29;20031;-60
2022/04/28 06:57:48;;;;;;;23.23;9.82;;;7.90;99.90;;;;;;5075667;23;20047;-60
2022/04/28 07:00:14;;;;;;;25.20;10.10;;;8.00;99.90;;;;;;4947997;28;20047;-60
2022/04/28 07:13:02;;;;;;;23.95;9.57;;;8.50;99.90;;;;;;5091525;23;20051;-60
2022/04/28 07:26:41;;;;;;;26.00;9.80;;;9.20;99.90;;;;;;5160174;23;20287;-61
2022/04/28 07:42:22;;;;;;;16.17;8.18;;;10.00;99.90;;;;;;4976579;23;20051;-61
2022/04/28 07:44:47;;;;;;;27.80;8.40;;;10.20;99.90;;;;;;4962615;28;20051;-61
2022/04/28 07:47:13;;;;;;;18.48;8.70;;;10.20;99.90;;;;;;5663661;23;20006;-60
2022/04/28 07:49:38;;;;;;;12.75;7.05;;;10.30;99.90;;;;;;4949377;28;20039;-61
2022/04/28 07:57:15;;;;;;;18.30;8.93;;;10.50;99.90;;;;;;5376759;23;20058;-61
2022/04/28 08:07:27;;;;;;;15.75;7.93;;;10.90;99.90;;;;;;5048182;23;20054;-60
2022/04/28 08:09:52;;;;;;;17.13;8.20;;;11.00;99.90;;;;;;4960266;28;20047;-61
2022/04/28 08:12:18;;;;;;;14.40;7.95;;;11.10;99.90;;;;;;4960711;28;20050;-61
2022/04/28 08:17:21;;;;;;;19.80;8.23;;;11.20;99.90;;;;;;5875543;23;20046;-60
2022/04/28 08:19:47;;;;;;;17.13;7.85;;;11.20;99.90;;;;;;4963218;28;20054;-62
2022/04/28 08:22:13;;;;;;;13.30;7.40;;;11.20;99.90;;;;;;4954547;28;20035;-60
2022/04/28 08:24:38;;;;;;;15.05;6.93;;;11.10;99.90;;;;;;4955859;28;20039;-60
2022/04/28 08:27:04;;;;;;;12.45;6.85;;;11.20;99.90;;;;;;4959912;28;20743;-60
2022/04/28 08:29:30;;;;;;;10.80;6.75;;;11.20;99.90;;;;;;4968942;28;20045;-61
2022/04/28 08:31:56;;;;;;;16.35;7.30;;;11.20;99.90;;;;;;4953929;28;20067;-61
2022/04/28 08:34:22;;;;;;;14.32;7.75;;;11.30;99.90;;;;;;4963508;28;20038;-61
2022/04/28 08:42:00;;;;;;;14.23;7.70;;;11.60;99.90;;;;;;5580785;23;20055;-60
2022/04/28 08:46:59;;;;;;;10.30;7.03;;;11.90;99.90;;;;;;4947306;29;20564;-61
2022/04/28 08:52:02;;;;;;;18.33;6.70;;;12.00;99.90;;;;;;5323973;23;20237;-61
2022/04/28 08:54:29;;;;;;;13.23;7.03;;;12.00;99.90;;;;;;4964198;28;20082;-61
2022/04/28 08:56:57;;;;;;;11.63;7.03;;;12.10;99.90;;;;;;4963733;28;20085;-61
2022/04/28 08:59:24;;;;;;;13.60;6.60;;;12.20;99.90;;;;;;4973050;28;20508;-61
2022/04/28 09:01:50;;;;;;;12.88;7.43;;;12.30;99.90;;;;;;4969443;28;20035;-61
2022/04/28 09:04:17;;;;;;;15.75;7.22;;;12.40;99.90;;;;;;4968398;28;20183;-61
2022/04/28 09:10:02;;;;;;;16.95;7.50;;;12.70;99.90;;;;;;5556795;23;20037;-61
2022/04/28 09:16:25;;;;;;;12.20;7.57;;;12.80;99.90;;;;;;4972344;28;20066;-61
2022/04/28 09:18:54;;;;;;;12.85;7.43;;;12.90;99.90;;;;;;4968746;28;20108;-61
2022/04/28 09:21:19;;;;;;;17.95;7.55;;;13.10;99.90;;;;;;4974042;28;20536;-61
2022/04/28 09:26:26;;;;;;;14.82;6.95;;;13.20;99.90;;;;;;5350495;23;20413;-61
2022/04/28 09:28:53;;;;;;;11.70;6.30;;;13.30;99.90;;;;;;4964569;28;20497;-61
2022/04/28 09:31:20;;;;;;;9.63;5.35;;;13.40;99.90;;;;;;4968559;28;20121;-61
2022/04/28 09:44:11;;;;;;;10.52;5.70;;;13.70;99.90;;;;;;4961526;28;20043;-60
2022/04/28 09:59:37;;;;;;;9.00;5.13;;;14.40;99.90;;;;;;5788355;23;20122;-59
2022/04/28 10:02:04;;;;;;;13.48;5.40;;;14.70;99.90;;;;;;4925946;29;20499;-59
2022/04/28 10:04:30;;;;;;;14.40;5.68;;;14.70;99.90;;;;;;4933311;29;20032;-59
2022/04/28 10:06:58;;;;;;;8.60;4.70;;;15.00;99.90;;;;;;4934123;29;20070;-58
2022/04/28 10:11:59;;;;;;;9.15;4.70;;;14.70;99.90;;;;;;5081694;23;20079;-59
2022/04/28 10:14:25;;;;;;;10.55;5.18;;;14.50;99.90;;;;;;4970205;28;20047;-59
2022/04/28 10:19:57;;;;;;;11.18;4.60;;;15.00;99.40;;;;;;5920680;23;20726;-59
2022/04/28 10:22:34;;;;;;;9.63;4.88;;;15.10;99.90;;;;;;4972681;28;20026;-59
2022/04/28 10:44:45;;;;;;;7.80;3.45;;;15.80;99.90;;;;;;5074454;23;20066;-60
2022/04/28 10:51:45;;;;;;;10.85;4.22;;;15.00;98.60;;;;;;5311011;23;1240980;-61
2022/04/28 10:55:01;;;;;;;7.63;4.00;;;14.60;98.60;;;;;;5087223;23;20073;-61
2022/04/28 10:57:37;;;;;;;10.18;4.90;;;14.60;99.90;;;;;;4956219;28;20054;-61
2022/04/28 11:00:04;;;;;;;11.75;4.90;;;14.90;99.90;;;;;;4949304;28;20144;-61
2022/04/28 11:02:34;;;;;;;10.00;5.07;;;15.40;99.90;;;;;;4950105;23;20086;-63
2022/04/28 11:05:03;;;;;;;10.32;4.80;;;15.70;99.20;;;;;;4942591;29;20081;-62
2022/04/28 11:07:30;;;;;;;12.48;4.93;;;16.00;98.90;;;;;;4944761;29;20118;-61
2022/04/28 11:10:07;;;;;;;11.93;5.75;;;16.30;99.10;;;;;;4941272;29;20044;-62
2022/04/28 11:12:39;;;;;;;9.60;5.05;;;16.60;97.10;;;;;;4948298;28;20055;-63
2022/04/28 11:15:07;;;;;;;13.73;5.68;;;16.60;95.50;;;;;;4944428;28;20042;-62
2022/04/28 11:17:38;;;;;;;8.43;5.28;;;16.60;98.50;;;;;;4939671;28;20051;-62
2022/04/28 11:20:11;;;;;;;10.48;4.93;;;16.30;98.70;;;;;;4945446;28;20085;-62
2022/04/28 11:22:40;;;;;;;9.70;4.47;;;15.80;98.30;;;;;;4952975;28;20046;-62
2022/04/28 11:25:13;;;;;;;12.18;4.45;;;15.40;98.20;;;;;;4943743;28;20517;-62
2022/04/28 11:27:40;;;;;;;9.38;4.72;;;15.00;97.40;;;;;;4946822;28;20090;-62
2022/04/28 11:30:09;;;;;;;9.73;5.05;;;15.00;99.60;;;;;;4953376;28;20047;-62
2022/04/28 11:32:35;;;;;;;11.80;5.57;;;15.10;99.90;;;;;;4937367;28;20541;-63
2022/04/28 11:35:02;;;;;;;11.18;5.13;;;15.00;99.90;;;;;;4944878;28;20058;-61
2022/04/28 11:37:28;;;;;;;13.38;5.70;;;14.90;99.20;;;;;;4952890;29;20118;-62
2022/04/28 11:39:56;;;;;;;11.82;4.43;;;15.00;99.90;;;;;;4941211;28;20042;-62
2022/04/28 11:42:24;;;;;;;12.13;5.88;;;15.00;97.90;;;;;;4945948;28;20034;-62
2022/04/28 11:44:55;;;;;;;11.68;6.10;;;15.00;99.90;;;;;;4955548;28;20046;-62
2022/04/28 11:47:26;;;;;;;9.38;5.53;;;15.30;99.90;;;;;;4933419;29;20681;-62
2022/04/28 11:50:02;;;;;;;11.85;5.85;;;15.50;99.90;;;;;;4943604;28;20043;-62
2022/04/28 11:52:34;;;;;;;10.82;5.72;;;15.60;97.10;;;;;;4971789;28;20074;-62
2022/04/28 11:55:06;;;;;;;9.23;4.47;;;15.90;99.90;;;;;;4955045;28;20043;-62
2022/04/28 11:57:32;;;;;;;7.55;5.50;;;16.00;97.50;;;;;;4946118;28;20104;-62
2022/04/28 11:59:59;;;;;;;11.27;5.43;;;16.10;98.70;;;;;;4940604;28;20058;-62
2022/04/28 12:02:34;;;;;;;13.07;5.40;;;16.30;97.90;;;;;;4946518;28;20118;-62
2022/04/28 12:05:14;;;;;;;11.02;5.90;;;16.40;98.30;;;;;;4952250;28;20047;-62
2022/04/28 12:07:42;;;;;;;13.93;5.70;;;16.00;98.40;;;;;;4949505;28;20043;-62
2022/04/28 12:15:37;;;;;;;11.90;6.18;;;15.80;97.80;;;;;;4942859;28;20880;-67
2022/04/28 12:21:24;;;;;;;16.17;6.80;;;15.80;95.60;;;;;;4944865;28;20614;-63
2022/04/28 12:23:55;;;;;;;11.90;6.80;;;15.80;97.40;;;;;;4951238;28;20063;-62
2022/04/28 12:26:24;;;;;;;14.68;6.60;;;16.00;99.20;;;;;;4951535;28;20073;-67
2022/04/28 12:28:50;;;;;;;10.75;6.10;;;16.30;99.50;;;;;;4925609;28;20043;-64
2022/04/28 12:31:30;;;;;;;14.35;6.82;;;16.60;96.30;;;;;;4952267;28;20062;-60
2022/04/28 12:33:56;;;;;;;16.23;6.07;;;16.80;96.90;;;;;;4954203;28;20650;-62
2022/04/28 12:36:22;;;;;;;12.20;5.68;;;17.00;96.70;;;;;;4949890;28;20054;-62
2022/04/28 12:38:53;;;;;;;12.20;5.93;;;17.00;96.50;;;;;;4948055;28;20043;-62
2022/04/28 12:41:27;;;;;;;13.70;6.88;;;17.20;94.40;;;;;;4940669;28;20058;-62
2022/04/28 12:43:57;;;;;;;16.15;6.95;;;17.30;95.60;;;;;;4938876;28;20471;-62
2022/04/28 12:46:32;;;;;;;12.93;6.75;;;17.60;96.70;;;;;;4936153;28;20036;-62
2022/04/28 12:49:01;;;;;;;15.23;6.70;;;17.90;97.70;;;;;;4938492;28;20047;-62
2022/04/28 12:51:27;;;;;;;11.68;6.22;;;18.30;96.40;;;;;;4936462;28;20042;-62
2022/04/28 12:54:14;;;;;;;9.70;5.03;;;18.20;96.60;;;;;;4933187;28;20077;-62
2022/04/28 12:56:46;;;;;;;16.40;6.10;;;17.60;91.10;;;;;;4948490;28;20106;-62
2022/04/28 12:59:17;;;;;;;33.55;6.55;;;17.20;94.50;;;;;;4951476;29;20534;-62
2022/04/28 13:01:46;;;;;;;11.65;6.10;;;16.90;94.70;;;;;;4938459;28;20058;-60
2022/04/28 13:04:22;;;;;;;14.32;6.43;;;16.50;96.50;;;;;;4938082;28;20198;-61
2022/04/28 13:06:48;;;;;;;12.82;6.60;;;16.10;94.80;;;;;;4944679;28;20036;-62
2022/04/28 13:09:15;;;;;;;23.13;6.95;;;16.50;97.20;;;;;;4950891;28;20094;-62
2022/04/28 13:11:42;;;;;;;14.63;6.90;;;17.00;98.10;;;;;;4944803;28;20409;-61
2022/04/28 13:14:12;;;;;;;11.80;6.35;;;17.30;97.60;;;;;;4936139;28;20047;-62
2022/04/28 13:16:39;;;;;;;8.32;5.00;;;17.20;90.00;;;;;;4946911;28;20153;-61
2022/04/28 13:19:05;;;;;;;11.75;6.75;;;17.00;94.10;;;;;;4940302;28;20043;-61
2022/04/28 13:21:31;;;;;;;13.90;6.13;;;16.80;96.40;;;;;;4941215;28;20416;-62
2022/04/28 13:23:58;;;;;;;12.55;6.05;;;16.40;96.20;;;;;;4939475;28;20031;-62
2022/04/28 13:26:26;;;;;;;11.98;6.53;;;16.50;95.40;;;;;;4950825;28;20414;-62
2022/04/28 13:28:53;;;;;;;17.80;6.80;;;17.00;96.10;;;;;;4951864;29;20047;-63
2022/04/28 13:31:19;;;;;;;11.40;6.75;;;17.30;95.10;;;;;;4915162;29;20130;-62
2022/04/28 13:33:46;;;;;;;14.02;6.47;;;17.80;95.50;;;;;;4949348;28;20043;-62
2022/04/28 13:36:13;;;;;;;13.18;6.68;;;18.30;95.00;;;;;;4951470;29;20048;-62
2022/04/28 13:38:38;;;;;;;13.50;7.03;;;18.10;94.00;;;;;;4943469;28;20133;-61
2022/04/28 13:41:05;;;;;;;15.23;6.70;;;17.50;94.10;;;;;;4945019;28;20155;-62
2022/04/28 13:43:31;;;;;;;13.23;6.35;;;17.40;95.00;;;;;;4949585;28;20117;-61
2022/04/28 13:46:03;;;;;;;10.48;6.53;;;16.80;95.80;;;;;;4955338;28;20058;-62
2022/04/28 13:48:29;;;;;;;13.07;7.05;;;17.00;94.50;;;;;;4953981;28;20393;-61
2022/04/28 13:50:55;;;;;;;14.73;7.28;;;17.50;96.20;;;;;;4946951;28;20046;-62
2022/04/28 13:53:27;;;;;;;11.02;5.72;;;18.10;95.80;;;;;;4951635;28;20105;-62
2022/04/28 13:56:00;;;;;;;13.55;6.53;;;18.00;94.10;;;;;;4945787;28;20086;-62
2022/04/28 13:58:27;;;;;;;11.32;5.18;;;17.50;95.70;;;;;;4947881;28;20043;-62
2022/04/28 14:00:54;;;;;;;9.18;4.88;;;17.10;93.30;;;;;;4947051;28;20094;-62
2022/04/28 14:03:20;;;;;;;12.05;5.53;;;16.70;94.80;;;;;;4932304;28;20082;-62
2022/04/28 14:05:47;;;;;;;20.75;6.72;;;17.00;95.70;;;;;;4949259;28;20050;-63
2022/04/28 14:08:13;;;;;;;10.60;6.03;;;17.10;96.90;;;;;;4950178;28;20043;-62
2022/04/28 14:10:39;;;;;;;11.27;5.97;;;17.00;96.70;;;;;;4947569;28;20046;-62
2022/04/28 14:13:05;;;;;;;10.27;5.28;;;17.40;96.90;;;;;;4938879;28;20034;-62
2022/04/28 14:15:31;;;;;;;13.80;6.20;;;17.40;96.30;;;;;;4945934;28;20086;-62
2022/04/28 14:17:56;;;;;;;15.32;5.78;;;17.20;96.50;;;;;;4950143;28;20070;-63
2022/04/28 14:20:22;;;;;;;11.63;6.10;;;17.30;94.80;;;;;;4939343;28;20059;-62
2022/04/28 14:22:47;;;;;;;11.25;5.80;;;17.30;95.10;;;;;;4940599;28;20042;-62
2022/04/28 14:25:13;;;;;;;12.25;6.35;;;17.00;96.50;;;;;;4949956;28;20039;-63
2022/04/28 14:27:39;;;;;;;12.13;6.40;;;17.10;97.10;;;;;;4937296;28;20043;-62
2022/04/28 14:30:06;;;;;;;11.85;6.47;;;17.10;96.60;;;;;;4938476;28;20074;-62
2022/04/28 14:32:33;;;;;;;18.60;5.65;;;17.40;96.60;;;;;;4941745;28;20840;-63
2022/04/28 14:34:58;;;;;;;13.27;6.13;;;17.50;95.80;;;;;;4942831;28;20047;-63
2022/04/28 14:37:24;;;;;;;14.18;5.90;;;18.00;96.00;;;;;;4949653;28;20039;-63
2022/04/28 14:39:50;;;;;;;11.32;4.97;;;17.80;95.70;;;;;;4942772;29;20102;-63
2022/04/28 14:42:15;;;;;;;10.73;6.05;;;17.30;92.50;;;;;;4937834;28;20146;-62
2022/04/28 14:44:41;;;;;;;10.63;5.70;;;17.50;95.60;;;;;;4943510;28;20032;-63
2022/04/28 14:47:07;;;;;;;11.43;5.32;;;17.80;95.20;;;;;;4940119;28;20065;-63
2022/04/28 14:52:34;;;;;;;11.05;6.25;;;18.10;94.10;;;;;;4867827;29;20061;-62
2022/04/28 14:55:04;;;;;;;14.60;5.20;;;18.60;91.50;;;;;;4931369;28;20043;-62
2022/04/28 14:57:42;;;;;;;12.90;6.10;;;18.70;93.40;;;;;;4950075;28;20031;-62
2022/04/28 15:00:17;;;;;;;13.43;5.88;;;18.40;93.30;;;;;;4949742;29;20043;-62
2022/04/28 15:02:43;;;;;;;10.40;5.55;;;18.60;94.00;;;;;;4945297;28;20051;-61
2022/04/28 15:05:09;;;;;;;12.00;6.10;;;19.10;93.70;;;;;;4948676;28;20043;-62
2022/04/28 15:07:35;;;;;;;11.45;5.55;;;19.60;92.90;;;;;;4945160;29;20075;-63
2022/04/28 15:10:03;;;;;;;13.82;5.53;;;20.10;91.80;;;;;;4949844;29;20046;-63
2022/04/28 15:12:30;;;;;;;11.13;5.28;;;20.40;90.20;;;;;;4942138;28;20675;-62
2022/04/28 15:14:59;;;;;;;10.30;6.00;;;20.40;68.30;;;;;;4924119;29;20058;-62
2022/04/28 15:17:27;;;;;;;9.27;5.10;;;20.00;75.10;;;;;;4949726;28;20070;-62
2022/04/28 15:19:52;;;;;;;12.30;6.00;;;19.80;76.90;;;;;;4929115;28;20047;-62
2022/04/28 15:22:18;;;;;;;9.90;5.35;;;19.50;82.20;;;;;;4943591;28;20099;-62
2022/04/28 15:24:45;;;;;;;10.82;5.15;;;19.70;83.80;;;;;;4944702;28;20044;-62
2022/04/28 15:27:11;;;;;;;9.73;5.28;;;20.10;68.70;;;;;;4924443;29;20043;-62
2022/04/28 15:29:37;;;;;;;10.52;5.15;;;20.20;76.80;;;;;;4949007;28;20852;-62
2022/04/28 15:32:04;;;;;;;11.93;5.97;;;20.40;71.20;;;;;;4933537;28;20059;-62
2022/04/28 15:34:30;;;;;;;9.73;5.15;;;20.30;71.10;;;;;;4943738;28;20062;-62
2022/04/28 15:36:55;;;;;;;9.40;5.00;;;20.00;68.90;;;;;;4949815;28;20674;-63
2022/04/28 15:39:21;;;;;;;14.52;5.28;;;20.20;72.40;;;;;;4957374;28;20042;-63
2022/04/28 15:41:48;;;;;;;12.57;5.05;;;20.50;67.20;;;;;;4949469;28;20059;-65
2022/04/28 15:44:14;;;;;;;9.52;5.07;;;20.70;66.70;;;;;;4951909;28;20050;-63
2022/04/28 15:46:39;;;;;;;11.68;4.93;;;20.50;67.30;;;;;;4913704;28;20426;-63
2022/04/28 15:49:07;;;;;;;10.93;5.10;;;20.30;69.60;;;;;;4950152;28;20118;-63
2022/04/28 15:51:33;;;;;;;10.30;4.70;;;20.70;72.10;;;;;;4955524;28;20035;-63
2022/04/28 15:53:59;;;;;;;13.20;4.95;;;20.60;68.20;;;;;;4935628;28;20756;-63
2022/04/28 15:56:25;;;;;;;10.07;4.22;;;20.60;67.10;;;;;;4942251;28;20046;-63
2022/04/28 15:58:51;;;;;;;10.82;4.50;;;20.00;66.20;;;;;;4950341;28;20043;-63
2022/04/28 16:01:19;;;;;;;9.40;4.80;;;19.60;69.90;;;;;;4946086;28;20119;-63
2022/04/28 16:03:47;;;;;;;9.23;4.82;;;19.40;69.90;;;;;;4946065;28;20039;-63
2022/04/28 16:06:12;;;;;;;9.43;4.63;;;19.10;73.40;;;;;;4952526;28;20035;-63
2022/04/28 16:08:38;;;;;;;12.00;4.60;;;19.00;77.20;;;;;;4941244;28;20098;-63
2022/04/28 16:11:03;;;;;;;10.38;4.80;;;19.00;73.20;;;;;;4936575;28;20039;-63
2022/04/28 16:13:29;;;;;;;9.93;4.63;;;18.50;78.10;;;;;;4949435;28;20055;-63
2022/04/28 16:15:55;;;;;;;18.65;5.30;;;17.90;77.60;;;;;;4932697;28;20087;-63
2022/04/28 16:18:21;;;;;;;9.80;4.75;;;17.30;85.30;;;;;;4954108;28;20049;-63
2022/04/28 16:20:47;;;;;;;11.23;4.90;;;17.00;89.30;;;;;;4953476;28;20047;-63
2022/04/28 16:23:13;;;;;;;10.65;5.22;;;16.80;91.20;;;;;;4950968;28;20074;-63
2022/04/28 16:25:39;;;;;;;13.00;5.35;;;16.40;91.50;;;;;;4943714;28;20077;-64
2022/04/28 16:28:06;;;;;;;14.82;5.65;;;16.20;92.50;;;;;;4954326;28;20054;-64
2022/04/28 16:30:32;;;;;;;12.45;5.20;;;16.00;92.80;;;;;;4952748;28;20126;-64
2022/04/28 16:32:57;;;;;;;11.70;5.20;;;16.10;93.20;;;;;;4948547;28;20665;-63
2022/04/28 16:35:24;;;;;;;11.63;5.70;;;16.70;93.20;;;;;;4945172;28;20569;-63
2022/04/28 16:37:50;;;;;;;13.60;5.18;;;18.00;92.80;;;;;;4950763;28;20489;-63
2022/04/28 16:40:16;;;;;;;12.75;5.35;;;19.10;86.40;;;;;;4948976;28;20043;-63
2022/04/28 16:42:42;;;;;;;11.13;5.05;;;19.90;77.40;;;;;;4935403;28;20899;-63
2022/04/28 16:45:08;;;;;;;14.68;5.40;;;19.80;71.00;;;;;;4944259;28;20556;-63
2022/04/28 16:47:33;;;;;;;25.13;5.45;;;20.10;74.00;;;;;;4938607;29;20071;-62
2022/04/28 16:49:59;;;;;;;10.45;4.78;;;20.00;71.30;;;;;;4955092;28;20046;-62
2022/04/28 16:52:24;;;;;;;14.75;4.90;;;20.30;70.90;;;;;;4934377;29;20101;-62
2022/04/28 16:54:51;;;;;;;10.20;4.50;;;20.40;67.20;;;;;;4946031;28;20040;-62
2022/04/28 16:57:17;;;;;;;10.68;4.57;;;20.40;68.40;;;;;;4957062;28;20105;-63
2022/04/28 16:59:43;;;;;;;12.43;4.93;;;20.30;62.50;;;;;;4955676;28;20146;-63